aviador You're here:

KBVE Decoded Metar

BOOTHVILLE in LA, USA
Report Time2017-08-18 09:51:00
UTC Time2017-08-18 10:48:29
Flight Rules vfr VFR
Wind260° at 04 kt
W.Rank260° ranks 34
Current wind is below 260° avg. (7.4)
Visibility9999 m
Phenomena:N/A
Clouds:N/A
Expected CloudBase > 1,200 ft AGL from Temp-Dew spread
CeilingNone
Temp28°C (ISA +13)
Dew Point25°C (84% RH)
Heat Index32.7°C
QNH1017 hPa
Density Alt1,778 ft
Elevation3 ft
Report Wrong Elevation
Raw Report
KBVE 180951Z AUTO 26004KT 10SM CLR 28/25 A3002 RMK AO2 SLP165
T02830250=

Extra information for KBVE:More info

Metar Taf Metar & Taf Last 4 Metars F.Rules Stats Wind Profile Meteogram Temp Stats Airport Information Weather charts Add Link Nearby VenuesMetar ALERT Operation Metar Decoded Social comments

AIRNAV info for KBVE